WetterOnline ( https://www.wetteronline.de )

Wetter aktuell Osnabrück

Aktuelles Wetter: Belm (103m)

6-stündlich | Neueste Meldungen
Ortszeit Temperatur Wetter
Mo, 26.10. 19:00 10.1° C leicht bewölkt
Mo, 26.10. 13:00 11.3° C wolkig
Mo, 26.10. 7:00 9.8° C bewölkt
Mo, 26.10. 1:00 11.0° C bedeckt
So, 25.10. 19:00 10.6° C leichter Regen
So, 25.10. 13:00 13.9° C leichter Regen
So, 25.10. 7:00 14.0° C wolkig
So, 25.10. 2:00 14.4° C bedeckt
Ortszeit Temperatur Wetter
Mo, 26.10. 21:00 9.8° C wolkig
Mo, 26.10. 20:50 9.8° C wolkig
Mo, 26.10. 20:40 9.6° C leicht bewölkt
Mo, 26.10. 20:30 9.6° C wolkenlos
Mo, 26.10. 20:20 9.6° C wolkenlos
Mo, 26.10. 20:10 9.8° C fast wolkenlos
Mo, 26.10. 20:00 9.7° C leicht bewölkt
Mo, 26.10. 19:30 9.6° C wolkenlos
Mo, 26.10. 19:00 10.1° C leicht bewölkt
Mo, 26.10. 18:30 10.2° C wolkig
Mo, 26.10. 18:00 10.1° C bewölkt
Ortszeit Relative Feuchte Sichtweite
Mo, 26.10. 19:00 73% 65 km
Mo, 26.10. 13:00 76% 60 km
Mo, 26.10. 7:00 94% 60 km
Mo, 26.10. 1:00 93% 60 km
So, 25.10. 19:00 96% 8 km
So, 25.10. 13:00 79% 45 km
So, 25.10. 7:00 77% >70 km
So, 25.10. 2:00 78% >70 km
Ortszeit Relative Feuchte Sichtweite
Mo, 26.10. 21:00 73% 65 km
Mo, 26.10. 20:50 73% -
Mo, 26.10. 20:40 74% -
Mo, 26.10. 20:30 75% 65 km
Mo, 26.10. 20:20 75% -
Mo, 26.10. 20:10 73% -
Mo, 26.10. 20:00 75% >70 km
Mo, 26.10. 19:30 75% 65 km
Mo, 26.10. 19:00 73% 65 km
Mo, 26.10. 18:30 74% >70 km
Mo, 26.10. 18:00 74% >70 km
Ortszeit Niederschlagsmenge Niederschlagsart
Mo, 26.10. 19:00 0.0 l/m2 in 12 Std. -
Mo, 26.10. 13:00 0.0 l/m2 in 6 Std. -
Mo, 26.10. 7:00 0.9 l/m2 in 12 Std. Regen
Mo, 26.10. 1:00 0.5 l/m2 in 6 Std. Regen
So, 25.10. 19:00 6 l/m2 in 12 Std. Regen
So, 25.10. 13:00 0.1 l/m2 in 6 Std. Regen
So, 25.10. 7:00 0.0 l/m2 in 12 Std. -
So, 25.10. 2:00 0.0 l/m2 in 6 Std. -
Ortszeit Niederschlagsmenge Niederschlagsart
Mo, 26.10. 21:00 0.0 l/m2 in 1 Std. -
Mo, 26.10. 20:50 keine Meldung -
Mo, 26.10. 20:40 keine Meldung -
Mo, 26.10. 20:30 0.0 l/m2 in 1 Std. -
Mo, 26.10. 20:20 keine Meldung -
Mo, 26.10. 20:10 keine Meldung -
Mo, 26.10. 20:00 0.1 l/m2 in 1 Std. Sprühregen
Mo, 26.10. 19:30 0.0 l/m2 in 1 Std. -
Mo, 26.10. 19:00 0.0 l/m2 in 1 Std. -
Mo, 26.10. 18:30 0.0 l/m2 in 1 Std. -
Mo, 26.10. 18:00 0.0 l/m2 in 1 Std. -
Ortszeit Stärke Spitze Richtung
km/h Bft. km/h Grad Sektor
Mo, 26.10. 19:00 15 3 39 180° S
Mo, 26.10. 13:00 20 4 37 220° SW
Mo, 26.10. 7:00 11 2 24 180° S
Mo, 26.10. 1:00 13 3 24 190° S
So, 25.10. 19:00 11 2 25 200° S
So, 25.10. 13:00 18 3 43 190° S
So, 25.10. 7:00 22 4 46 180° S
So, 25.10. 2:00 22 4 43 190° S
Ortszeit Stärke Spitze Richtung
km/h Bft. km/h Grad Sektor
Mo, 26.10. 21:00 18 3 29 180° S
Mo, 26.10. 20:50 18 3 - 180° S
Mo, 26.10. 20:40 18 3 - 180° S
Mo, 26.10. 20:30 18 3 29 180° S
Mo, 26.10. 20:20 18 3 - 180° S
Mo, 26.10. 20:10 19 3 - 180° S
Mo, 26.10. 20:00 14 3 25 180° S
Mo, 26.10. 19:30 11 2 22 170° S
Mo, 26.10. 19:00 15 3 26 180° S
Mo, 26.10. 18:30 13 3 26 200° S
Mo, 26.10. 18:00 13 3 26 200° S
Ortszeit Untergrenze Bedeckung Gattung
total tief tief mittel hoch
Mo, 26.10. 19:00 1290 m 4/8 4/8 - - -
Mo, 26.10. 13:00 690 m 7/8 4/8 - - -
Mo, 26.10. 7:00 2700 m 7/8 7/8 - - -
Mo, 26.10. 1:00 630 m 8/8 8/8 - - -
So, 25.10. 19:00 30 m 8/8 8/8 - - -
So, 25.10. 13:00 810 m 8/8 8/8 - - -
So, 25.10. 7:00 1800 m 8/8 3/8 - - -
So, 25.10. 2:00 960 m 8/8 8/8 - - -
Ortszeit Bedeckungsgrad in Achtel und Wolkenuntergrenze
Mo, 26.10. 21:00 1(1140m) 5(1800m)
Mo, 26.10. 20:50 1(1140m) 2(1410m) 5(1800m)
Mo, 26.10. 20:40 3(1800m)
Mo, 26.10. 20:30 keine Wolken
Mo, 26.10. 20:20 keine Wolken
Mo, 26.10. 20:10 1(1800m)
Mo, 26.10. 20:00 3(1800m)
Mo, 26.10. 19:30 keine Wolken
Mo, 26.10. 19:00 1(1290m) 4(1800m)
Mo, 26.10. 18:30 4(1500m) 6(1800m)
Mo, 26.10. 18:00 7(1800m)
Ortszeit Luftdruck NN (hPa) Tendenz (hPa in 3 Std.)
Mo, 26.10. 19:00 1002 0,0
Mo, 26.10. 13:00 1002 - 0,2
Mo, 26.10. 7:00 1001 - 0,5
Mo, 26.10. 1:00 1002 - 0,5
So, 25.10. 19:00 1003 + 0,6
So, 25.10. 13:00 1003 - 0,7
So, 25.10. 7:00 1003 - 1,2
So, 25.10. 2:00 1006 - 1,2
Ortszeit Luftdruck NN (hPa) Tendenz (hPa in 3 Std.)
Mo, 26.10. 21:00 1003 + 0,6
Mo, 26.10. 20:50 1003 keine Meldung
Mo, 26.10. 20:40 1003 keine Meldung
Mo, 26.10. 20:30 1003 + 0,6
Mo, 26.10. 20:20 1003 keine Meldung
Mo, 26.10. 20:10 1002 keine Meldung
Mo, 26.10. 20:00 1002 0,0
Mo, 26.10. 19:30 1002 + 0,1
Mo, 26.10. 19:00 1002 0,0
Mo, 26.10. 18:30 1002 + 0,4
Mo, 26.10. 18:00 1002 + 0,3
Ortszeit Schneehöhe (cm)
Mo, 26.10. 19:00 0
Mo, 26.10. 13:00 0
Mo, 26.10. 7:00 0
Mo, 26.10. 1:00 0
So, 25.10. 19:00 0
So, 25.10. 13:00 0
So, 25.10. 7:00 0
So, 25.10. 2:00 0
Ortszeit Schneehöhe (cm)
Mo, 26.10. 21:00 0
Mo, 26.10. 20:50 0
Mo, 26.10. 20:40 0
Mo, 26.10. 20:30 0
Mo, 26.10. 20:20 0
Mo, 26.10. 20:10 0
Mo, 26.10. 20:00 0
Mo, 26.10. 19:30 0
Mo, 26.10. 19:00 0
Mo, 26.10. 18:30 0
Mo, 26.10. 18:00 0
Link zu dieser Seite / Seite empfehlen

Das Wetter in ...